createdAt,value
2017-05-09T00:00:36.072Z,0
2017-05-09T00:01:45.786Z,0
2017-05-09T00:02:55.820Z,0
2017-05-09T00:04:05.223Z,0
2017-05-09T00:05:14.309Z,0
2017-05-09T00:06:24.652Z,0
2017-05-09T00:07:34.363Z,0
2017-05-09T00:08:44.396Z,0
2017-05-09T00:09:54.474Z,0
2017-05-09T00:11:04.511Z,0
2017-05-09T00:12:14.579Z,0
2017-05-09T00:13:24.296Z,0
2017-05-09T00:14:34.337Z,0
2017-05-09T00:15:44.042Z,0
2017-05-09T00:16:54.068Z,0
2017-05-09T00:18:03.477Z,0
2017-05-09T00:19:13.500Z,0
2017-05-09T00:20:23.215Z,0
2017-05-09T00:21:32.924Z,0
2017-05-09T00:22:42.957Z,0
2017-05-09T00:23:52.673Z,0
2017-05-09T00:25:02.713Z,0
2017-05-09T00:26:12.743Z,0
2017-05-09T00:27:22.769Z,0
2017-05-09T00:28:32.486Z,0
2017-05-09T00:29:42.231Z,0
2017-05-09T00:30:52.255Z,0
2017-05-09T00:32:01.665Z,0
2017-05-09T00:33:11.724Z,0
2017-05-09T00:34:21.754Z,0
2017-05-09T00:35:32.106Z,0
2017-05-09T00:36:41.823Z,0
2017-05-09T00:37:52.174Z,0
2017-05-09T00:39:02.204Z,0
2017-05-09T00:40:12.557Z,0
2017-05-09T00:41:22.575Z,0
2017-05-09T00:42:31.970Z,0
2017-05-09T00:43:41.376Z,0
2017-05-09T00:44:51.726Z,0
2017-05-09T00:46:02.075Z,0
2017-05-09T00:47:11.468Z,0
2017-05-09T00:48:21.194Z,0
2017-05-09T00:49:30.914Z,0
2017-05-09T00:50:41.259Z,0
2017-05-09T00:51:50.980Z,0
2017-05-09T00:53:01.014Z,0
2017-05-09T00:54:10.421Z,0
2017-05-09T00:55:19.824Z,0
2017-05-09T00:56:29.547Z,0
2017-05-09T00:57:38.941Z,0
2017-05-09T00:58:48.976Z,0
2017-05-09T00:59:58.374Z,0
2017-05-09T01:01:08.405Z,0
2017-05-09T01:02:18.754Z,0
2017-05-09T01:03:28.475Z,0
2017-05-09T01:04:37.876Z,0
2017-05-09T01:05:48.211Z,0
2017-05-09T01:06:58.567Z,0
2017-05-09T01:08:08.592Z,0
2017-05-09T01:09:18.310Z,0
2017-05-09T01:10:27.397Z,0
2017-05-09T01:11:36.793Z,0
2017-05-09T01:12:46.830Z,0
2017-05-09T01:13:56.227Z,0
2017-05-09T01:15:05.970Z,0
2017-05-09T01:16:16.006Z,0
2017-05-09T01:17:26.031Z,0
2017-05-09T01:18:36.067Z,0
2017-05-09T01:19:45.462Z,0
2017-05-09T01:20:55.174Z,0
2017-05-09T01:22:04.582Z,0
2017-05-09T01:23:13.984Z,0
2017-05-09T01:24:24.029Z,0
2017-05-09T01:25:34.043Z,0
2017-05-09T01:26:43.118Z,0
2017-05-09T01:27:53.150Z,0
2017-05-09T01:29:02.560Z,0
2017-05-09T01:30:12.279Z,0
2017-05-09T01:31:22.615Z,0
2017-05-09T01:32:32.377Z,0
2017-05-09T01:33:42.409Z,0
2017-05-09T01:34:51.181Z,0
2017-05-09T01:36:00.923Z,0
2017-05-09T01:37:10.970Z,0
2017-05-09T01:38:20.691Z,0
2017-05-09T01:39:30.726Z,0
2017-05-09T01:40:41.071Z,0
2017-05-09T01:41:50.791Z,0
2017-05-09T01:42:59.881Z,0
2017-05-09T01:44:08.653Z,0
2017-05-09T01:45:18.049Z,0
2017-05-09T01:46:28.392Z,0
2017-05-09T01:47:37.786Z,0
2017-05-09T01:48:48.147Z,0
2017-05-09T01:49:57.247Z,0
2017-05-09T01:51:06.961Z,0
2017-05-09T01:52:17.003Z,0
2017-05-09T01:53:27.038Z,0
2017-05-09T01:54:37.066Z,0
2017-05-09T01:55:47.097Z,0
2017-05-09T01:56:56.812Z,0
2017-05-09T01:58:06.530Z,0
2017-05-09T01:59:16.259Z,0
2017-05-09T02:00:26.292Z,0
2017-05-09T02:01:36.631Z,0
2017-05-09T02:02:46.031Z,0
2017-05-09T02:03:56.382Z,0
2017-05-09T02:05:06.721Z,0
2017-05-09T02:06:16.760Z,0
2017-05-09T02:07:26.472Z,0
2017-05-09T02:08:36.495Z,0
2017-05-09T02:09:46.217Z,0
2017-05-09T02:10:55.934Z,0
2017-05-09T02:12:05.966Z,0
2017-05-09T02:13:15.995Z,0
2017-05-09T02:14:26.340Z,0
2017-05-09T02:15:36.058Z,0
2017-05-09T02:16:46.416Z,0
2017-05-09T02:17:55.827Z,0
2017-05-09T02:19:05.861Z,0
2017-05-09T02:20:16.214Z,0
2017-05-09T02:21:25.929Z,0
2017-05-09T02:22:35.325Z,0
2017-05-09T02:23:45.675Z,0
2017-05-09T02:24:55.403Z,0
2017-05-09T02:26:05.125Z,0
2017-05-09T02:27:14.835Z,0
2017-05-09T02:28:24.856Z,0
2017-05-09T02:29:34.260Z,0
2017-05-09T02:30:43.672Z,0
2017-05-09T02:31:53.697Z,0
2017-05-09T02:33:03.412Z,0
2017-05-09T02:34:12.805Z,0
2017-05-09T02:35:22.833Z,0
2017-05-09T02:36:32.586Z,0
2017-05-09T02:37:42.611Z,0
2017-05-09T02:38:52.336Z,0
2017-05-09T02:40:02.361Z,0
2017-05-09T02:41:12.069Z,0
2017-05-09T02:42:21.774Z,0
2017-05-09T02:43:32.119Z,0
2017-05-09T02:44:42.160Z,0
2017-05-09T02:45:51.563Z,0
2017-05-09T02:47:01.276Z,0
2017-05-09T02:48:11.303Z,0
2017-05-09T02:49:21.344Z,0
2017-05-09T02:50:30.740Z,0
2017-05-09T02:51:41.087Z,0
2017-05-09T02:52:50.801Z,0
2017-05-09T02:54:00.213Z,0
2017-05-09T02:55:09.935Z,0
2017-05-09T02:56:19.341Z,0
2017-05-09T02:57:29.370Z,0
2017-05-09T02:58:39.091Z,0
2017-05-09T02:59:48.836Z,0
2017-05-09T03:00:58.551Z,0
2017-05-09T03:02:08.571Z,0
2017-05-09T03:03:18.288Z,0
2017-05-09T03:04:28.012Z,0
2017-05-09T03:05:38.360Z,0
2017-05-09T03:06:47.437Z,0
2017-05-09T03:07:56.843Z,0
2017-05-09T03:09:06.565Z,0
2017-05-09T03:10:16.285Z,0
2017-05-09T03:11:25.997Z,4
2017-05-09T03:12:35.717Z,4
2017-05-09T03:13:45.436Z,4
2017-05-09T03:14:55.468Z,0
2017-05-09T03:16:05.811Z,4
2017-05-09T03:17:15.526Z,4
2017-05-09T03:18:25.557Z,8
2017-05-09T03:19:35.906Z,4
2017-05-09T03:20:45.303Z,8
2017-05-09T03:21:55.332Z,8
2017-05-09T03:23:05.052Z,8
2017-05-09T03:24:15.392Z,12
2017-05-09T03:25:25.417Z,16
2017-05-09T03:26:35.135Z,16
2017-05-09T03:27:45.166Z,20
2017-05-09T03:28:55.191Z,24
2017-05-09T03:30:05.223Z,28
2017-05-09T03:31:14.931Z,32
2017-05-09T03:32:24.648Z,40
2017-05-09T03:33:34.991Z,48
2017-05-09T03:34:44.707Z,52
2017-05-09T03:35:54.421Z,60
2017-05-09T03:37:04.467Z,72
2017-05-09T03:38:14.496Z,80
2017-05-09T03:39:23.905Z,92
2017-05-09T03:40:33.943Z,108
2017-05-09T03:41:43.333Z,120
2017-05-09T03:42:53.042Z,136
2017-05-09T03:44:03.072Z,152
2017-05-09T03:45:12.460Z,172
2017-05-09T03:46:21.857Z,196
2017-05-09T03:47:31.572Z,216
2017-05-09T03:48:41.912Z,244
2017-05-09T03:49:51.948Z,268
2017-05-09T03:51:01.655Z,296
2017-05-09T03:52:11.686Z,328
2017-05-09T03:53:22.067Z,364
2017-05-09T03:54:31.789Z,400
2017-05-09T03:55:41.827Z,440
2017-05-09T03:56:51.547Z,480
2017-05-09T03:58:01.260Z,520
2017-05-09T03:59:10.963Z,568
2017-05-09T04:00:20.678Z,616
2017-05-09T04:01:30.383Z,668
2017-05-09T04:02:40.110Z,720
2017-05-09T04:03:49.818Z,776
2017-05-09T04:04:59.531Z,836
2017-05-09T04:06:09.562Z,900
2017-05-09T04:07:19.286Z,960
2017-05-09T04:08:29.321Z,1020
2017-05-09T04:09:39.345Z,1080
2017-05-09T04:10:48.741Z,1144
2017-05-09T04:11:58.132Z,1204
2017-05-09T04:13:07.522Z,1272
2017-05-09T04:14:16.939Z,1336
2017-05-09T04:15:26.650Z,1396
2017-05-09T04:16:36.363Z,1448
2017-05-09T04:17:46.389Z,1500
2017-05-09T04:18:56.426Z,1556
2017-05-09T04:20:06.470Z,1608
2017-05-09T04:21:16.192Z,1664
2017-05-09T04:22:25.918Z,1732
2017-05-09T04:23:35.640Z,1788
2017-05-09T04:24:45.354Z,1868
2017-05-09T04:25:55.703Z,1944
2017-05-09T04:27:06.058Z,1996
2017-05-09T04:28:16.089Z,2008
2017-05-09T04:29:26.120Z,1956
2017-05-09T04:30:35.521Z,2016
2017-05-09T04:31:45.554Z,2132
2017-05-09T04:32:55.902Z,2208
2017-05-09T04:34:05.298Z,2304
2017-05-09T04:35:14.999Z,2396
2017-05-09T04:36:24.734Z,2468
2017-05-09T04:37:34.455Z,2532
2017-05-09T04:38:44.809Z,2568
2017-05-09T04:39:54.215Z,2560
2017-05-09T04:41:03.936Z,2568
2017-05-09T04:42:13.651Z,2580
2017-05-09T04:43:23.692Z,2692
2017-05-09T04:44:34.038Z,2716
2017-05-09T04:45:43.746Z,2896
2017-05-09T04:46:53.453Z,2976
2017-05-09T04:48:02.855Z,3036
2017-05-09T04:49:12.262Z,3092
2017-05-09T04:50:22.288Z,3140
2017-05-09T04:51:31.997Z,3192
2017-05-09T04:52:41.717Z,3224
2017-05-09T04:53:51.432Z,3256
2017-05-09T04:55:00.836Z,3296
2017-05-09T04:56:10.232Z,3352
2017-05-09T04:57:19.947Z,3404
2017-05-09T04:58:29.975Z,3324
2017-05-09T04:59:39.694Z,3284
2017-05-09T05:00:49.721Z,3476
2017-05-09T05:01:59.752Z,3548
2017-05-09T05:03:10.088Z,3616
2017-05-09T05:04:19.798Z,3680
2017-05-09T05:05:29.835Z,3736
2017-05-09T05:06:39.547Z,3776
2017-05-09T05:07:48.946Z,3828
2017-05-09T05:08:58.663Z,3880
2017-05-09T05:10:07.751Z,3920
2017-05-09T05:11:16.837Z,3960
2017-05-09T05:12:26.238Z,3988
2017-05-09T05:13:35.953Z,3984
2017-05-09T05:14:45.362Z,4156
2017-05-09T05:15:54.763Z,4224
2017-05-09T05:17:04.465Z,4280
2017-05-09T05:18:14.488Z,4320
2017-05-09T05:19:24.519Z,4352
2017-05-09T05:20:34.553Z,4368
2017-05-09T05:21:44.272Z,4372
2017-05-09T05:22:53.677Z,4372
2017-05-09T05:24:03.088Z,4372
2017-05-09T05:25:12.808Z,4368
2017-05-09T05:26:22.224Z,4380
2017-05-09T05:27:32.571Z,4392
2017-05-09T05:28:42.597Z,4408
2017-05-09T05:29:52.307Z,4436
2017-05-09T05:31:02.654Z,4464
2017-05-09T05:32:12.735Z,4484
2017-05-09T05:33:21.828Z,4496
2017-05-09T05:34:31.867Z,4516
2017-05-09T05:35:41.903Z,4532
2017-05-09T05:36:50.993Z,4536
2017-05-09T05:38:00.717Z,4544
2017-05-09T05:39:10.120Z,4552
2017-05-09T05:40:19.848Z,4552
2017-05-09T05:41:29.566Z,4556
2017-05-09T05:42:39.290Z,4564
2017-05-09T05:43:48.692Z,4632
2017-05-09T05:44:58.716Z,4696
2017-05-09T05:46:08.747Z,4792
2017-05-09T05:47:18.774Z,4844
2017-05-09T05:48:28.811Z,4888
2017-05-09T05:49:38.845Z,4964
2017-05-09T05:50:48.883Z,5036
2017-05-09T05:51:58.602Z,5112
2017-05-09T05:53:08.314Z,5104
2017-05-09T05:54:18.025Z,5112
2017-05-09T05:55:28.367Z,5080
2017-05-09T05:56:38.396Z,5056
2017-05-09T05:57:47.795Z,5040
2017-05-09T05:58:57.509Z,5044
2017-05-09T06:00:07.230Z,5040
2017-05-09T06:01:17.261Z,5048
2017-05-09T06:02:26.667Z,5088
2017-05-09T06:03:36.399Z,5172
2017-05-09T06:04:45.491Z,5348
2017-05-09T06:05:55.528Z,5536
2017-05-09T06:07:05.240Z,5684
2017-05-09T06:08:14.637Z,5804
2017-05-09T06:09:24.362Z,5936
2017-05-09T06:10:34.396Z,6048
2017-05-09T06:11:44.735Z,6188
2017-05-09T06:12:54.774Z,6300
2017-05-09T06:14:04.534Z,6408
2017-05-09T06:15:14.253Z,6548
2017-05-09T06:16:24.598Z,6704
2017-05-09T06:17:33.692Z,6880
2017-05-09T06:18:43.730Z,7096
2017-05-09T06:19:53.771Z,7452
2017-05-09T06:21:03.507Z,8068
2017-05-09T06:22:12.601Z,8856
2017-05-09T06:23:22.315Z,9740
2017-05-09T06:24:32.364Z,10368
2017-05-09T06:25:41.771Z,11004
2017-05-09T06:26:51.494Z,12388
2017-05-09T06:28:01.222Z,14092
2017-05-09T06:29:10.936Z,14584
2017-05-09T06:30:20.975Z,15312
2017-05-09T06:31:30.380Z,15788
2017-05-09T06:32:40.412Z,15752
2017-05-09T06:33:49.509Z,15704
2017-05-09T06:34:59.255Z,15840
2017-05-09T06:36:09.291Z,15876
2017-05-09T06:37:19.011Z,15956
2017-05-09T06:38:28.727Z,16632
2017-05-09T06:39:38.445Z,17320
2017-05-09T06:40:48.156Z,17728
2017-05-09T06:41:58.189Z,17600
2017-05-09T06:43:07.907Z,17280
2017-05-09T06:44:17.973Z,16448
2017-05-09T06:45:27.687Z,16812
2017-05-09T06:46:37.091Z,16812
2017-05-09T06:47:46.506Z,16736
2017-05-09T06:48:56.547Z,17084
2017-05-09T06:50:06.576Z,17728
2017-05-09T06:51:15.972Z,17824
2017-05-09T06:52:25.367Z,17888
2017-05-09T06:53:35.732Z,18304
2017-05-09T06:54:45.136Z,18624
2017-05-09T06:55:54.888Z,18688
2017-05-09T06:57:04.936Z,19392
2017-05-09T06:58:14.653Z,19424
2017-05-09T06:59:24.692Z,19968
2017-05-09T07:00:33.792Z,20608
2017-05-09T07:01:43.504Z,20640
2017-05-09T07:02:53.232Z,20832
2017-05-09T07:04:02.969Z,22208
2017-05-09T07:05:12.361Z,21600
2017-05-09T07:06:22.401Z,20928
2017-05-09T07:07:32.436Z,21408
2017-05-09T07:08:41.838Z,21056
2017-05-09T07:09:51.555Z,21664
2017-05-09T07:11:01.279Z,22464
2017-05-09T07:12:10.693Z,23040
2017-05-09T07:13:20.099Z,23328
2017-05-09T07:14:29.541Z,24096
2017-05-09T07:15:39.896Z,23360
2017-05-09T07:16:50.260Z,23808
2017-05-09T07:18:00.305Z,24288
2017-05-09T07:19:10.034Z,23872
2017-05-09T07:20:20.079Z,23360
2017-05-09T07:21:30.439Z,23712
2017-05-09T07:22:40.490Z,23392
2017-05-09T07:23:49.896Z,23296
2017-05-09T07:24:59.623Z,24480
2017-05-09T07:26:09.669Z,23488
2017-05-09T07:27:20.013Z,23680
2017-05-09T07:28:29.748Z,23168
2017-05-09T07:29:39.484Z,23168
2017-05-09T07:30:49.515Z,23552
2017-05-09T07:31:59.560Z,22816
2017-05-09T07:33:08.966Z,23072
2017-05-09T07:34:18.063Z,22592
2017-05-09T07:35:27.793Z,22304
2017-05-09T07:36:37.828Z,22400
2017-05-09T07:37:47.558Z,22816
2017-05-09T07:38:57.276Z,24192
2017-05-09T07:40:07.319Z,24512
2017-05-09T07:41:17.043Z,24064
2017-05-09T07:42:26.808Z,24128
2017-05-09T07:43:36.533Z,23584
2017-05-09T07:44:46.893Z,23584
2017-05-09T07:45:56.934Z,22752
2017-05-09T07:47:06.659Z,22592
2017-05-09T07:48:16.702Z,22816
2017-05-09T07:49:26.122Z,22848
2017-05-09T07:50:36.483Z,22176
2017-05-09T07:51:46.206Z,22048
2017-05-09T07:52:55.924Z,22528
2017-05-09T07:54:06.283Z,23136
2017-05-09T07:55:16.319Z,23168
2017-05-09T07:56:26.357Z,24000
2017-05-09T07:57:35.761Z,24448
2017-05-09T07:58:45.806Z,24480
2017-05-09T07:59:55.854Z,25056
2017-05-09T08:01:06.226Z,25984
2017-05-09T08:02:15.952Z,26720
2017-05-09T08:03:25.999Z,26592
2017-05-09T08:04:35.420Z,25792
2017-05-09T08:05:45.459Z,25408
2017-05-09T08:06:55.817Z,25312
2017-05-09T08:08:05.536Z,26048
2017-05-09T08:09:15.256Z,25920
2017-05-09T08:10:25.612Z,25408
2017-05-09T08:11:35.662Z,26336
2017-05-09T08:12:45.427Z,27392
2017-05-09T08:13:55.475Z,27968
2017-05-09T08:15:05.206Z,27680
2017-05-09T08:16:14.937Z,28256
2017-05-09T08:17:24.658Z,28608
2017-05-09T08:18:34.704Z,28928
2017-05-09T08:19:44.132Z,28160
2017-05-09T08:20:53.232Z,28224
2017-05-09T08:22:02.322Z,29216
2017-05-09T08:23:11.431Z,29632
2017-05-09T08:24:21.158Z,30048
2017-05-09T08:25:30.573Z,30016
2017-05-09T08:26:40.301Z,30432
2017-05-09T08:27:50.374Z,30784
2017-05-09T08:29:00.098Z,29856
2017-05-09T08:30:10.132Z,28928
2017-05-09T08:31:19.855Z,29888
2017-05-09T08:32:29.590Z,30240
2017-05-09T08:33:38.678Z,29888
2017-05-09T08:34:48.412Z,29504
2017-05-09T08:35:58.762Z,30112
2017-05-09T08:37:08.485Z,30400
2017-05-09T08:38:17.899Z,30880
2017-05-09T08:39:27.060Z,31680
2017-05-09T08:40:36.786Z,31520
2017-05-09T08:41:46.843Z,32096
2017-05-09T08:42:56.574Z,33184
2017-05-09T08:44:06.297Z,32544
2017-05-09T08:45:15.708Z,31424
2017-05-09T08:46:25.422Z,31776
2017-05-09T08:47:35.474Z,32320
2017-05-09T08:48:45.192Z,32800
2017-05-09T08:49:54.922Z,32736
2017-05-09T08:51:04.644Z,33120
2017-05-09T08:52:13.750Z,35232
2017-05-09T08:53:23.796Z,36448
2017-05-09T08:54:33.837Z,13656
2017-05-09T08:55:43.557Z,37504
2017-05-09T08:56:53.287Z,38400
2017-05-09T08:58:03.646Z,38880
2017-05-09T08:59:13.375Z,38592
2017-05-09T09:00:23.104Z,38112
2017-05-09T09:01:32.825Z,37472
2017-05-09T09:02:42.544Z,34720
2017-05-09T09:03:52.897Z,36448
2017-05-09T09:05:02.302Z,35328
2017-05-09T09:06:12.038Z,32064
2017-05-09T09:07:21.772Z,37536
2017-05-09T09:08:31.220Z,37248
2017-05-09T09:09:41.262Z,37984
2017-05-09T09:10:50.710Z,37536
2017-05-09T09:12:00.747Z,38432
2017-05-09T09:13:10.474Z,39008
2017-05-09T09:14:19.881Z,38624
2017-05-09T09:15:30.233Z,38240
2017-05-09T09:16:40.281Z,38688
2017-05-09T09:17:49.699Z,38240
2017-05-09T09:18:59.434Z,39776
2017-05-09T09:20:09.802Z,41568
2017-05-09T09:21:20.176Z,42880
2017-05-09T09:22:29.587Z,20768
2017-05-09T09:23:39.942Z,44288
2017-05-09T09:24:49.676Z,43680
2017-05-09T09:25:59.406Z,43360
2017-05-09T09:27:09.449Z,43136
2017-05-09T09:28:19.176Z,43488
2017-05-09T09:29:28.598Z,43936
2017-05-09T09:30:38.329Z,44384
2017-05-09T09:31:48.058Z,46176
2017-05-09T09:32:57.801Z,47264
2017-05-09T09:34:07.217Z,46784
2017-05-09T09:35:16.324Z,45920
2017-05-09T09:36:26.371Z,46816
2017-05-09T09:37:36.137Z,48224
2017-05-09T09:38:45.880Z,49280
2017-05-09T09:39:55.938Z,48288
2017-05-09T09:41:05.984Z,49216
2017-05-09T09:42:15.081Z,50496
2017-05-09T09:43:25.427Z,52992
2017-05-09T09:44:35.779Z,52800
2017-05-09T09:45:45.518Z,48000
2017-05-09T09:46:54.954Z,53856
2017-05-09T09:48:05.344Z,52512
2017-05-09T09:49:15.385Z,53184
2017-05-09T09:50:25.441Z,54688
2017-05-09T09:51:34.866Z,55680
2017-05-09T09:52:44.916Z,55328
2017-05-09T09:53:54.650Z,56480
2017-05-09T09:55:05.016Z,54912
2017-05-09T09:56:14.752Z,52096
2017-05-09T09:57:24.158Z,57824
2017-05-09T09:58:33.904Z,11656
2017-05-09T09:59:43.637Z,11508
2017-05-09T10:00:53.065Z,13448
2017-05-09T10:02:03.110Z,63296
2017-05-09T10:03:13.165Z,15548
2017-05-09T10:04:23.524Z,15360
2017-05-09T10:05:33.562Z,60480
2017-05-09T10:06:43.959Z,68320
2017-05-09T10:07:53.377Z,67584
2017-05-09T10:09:02.783Z,69056
2017-05-09T10:10:12.511Z,69056
2017-05-09T10:11:21.616Z,65856
2017-05-09T10:12:31.345Z,70432
2017-05-09T10:13:41.079Z,65952
2017-05-09T10:14:51.126Z,73792
2017-05-09T10:16:00.863Z,73312
2017-05-09T10:17:10.595Z,25536
2017-05-09T10:18:20.009Z,34496
2017-05-09T10:19:29.103Z,44768
2017-05-09T10:20:37.887Z,81600
2017-05-09T10:21:47.937Z,34976
2017-05-09T10:22:57.673Z,75616
2017-05-09T10:24:07.407Z,21152
2017-05-09T10:25:17.768Z,23360
2017-05-09T10:26:27.501Z,46944
2017-05-09T10:27:37.867Z,79008
2017-05-09T10:28:48.226Z,29312
2017-05-09T10:29:58.282Z,26048
2017-05-09T10:31:07.710Z,27712
2017-05-09T10:32:17.450Z,24640
2017-05-09T10:33:27.215Z,82336
2017-05-09T10:34:36.950Z,55616
2017-05-09T10:35:46.401Z,31872
2017-05-09T10:36:56.448Z,56096
2017-05-09T10:38:38.589Z,89120
2017-05-09T10:39:48.296Z,27008
2017-05-09T10:40:58.644Z,26848
2017-05-09T10:42:08.677Z,27712
2017-05-09T10:43:18.702Z,28608
2017-05-09T10:44:28.089Z,31040
2017-05-09T10:45:37.477Z,31872
2017-05-09T10:46:47.492Z,31360
2017-05-09T10:47:57.205Z,86304
2017-05-09T10:49:07.228Z,101952
2017-05-09T10:50:17.572Z,31552
2017-05-09T10:51:27.950Z,27264
2017-05-09T10:52:37.996Z,26720
2017-05-09T10:53:47.119Z,27936
2017-05-09T10:54:56.830Z,29728
2017-05-09T10:56:06.539Z,31776
2017-05-09T10:57:15.967Z,106112
2017-05-09T10:58:25.684Z,95904
2017-05-09T10:59:35.082Z,36832
2017-05-09T11:00:44.157Z,35616
2017-05-09T11:01:53.863Z,31712
2017-05-09T11:03:03.891Z,30720
2017-05-09T11:04:13.292Z,32960
2017-05-09T11:05:22.691Z,38048
2017-05-09T11:06:32.407Z,42016
2017-05-09T11:07:42.441Z,49632
2017-05-09T11:08:51.532Z,41568
2017-05-09T11:10:00.942Z,39904
2017-05-09T11:11:10.339Z,41408
2017-05-09T11:12:19.727Z,42368
2017-05-09T11:13:29.744Z,33952
2017-05-09T11:14:39.767Z,33600
2017-05-09T11:15:49.160Z,35424
2017-05-09T11:16:58.245Z,43136
2017-05-09T11:18:07.961Z,55040
2017-05-09T11:19:17.987Z,60512
2017-05-09T11:20:28.332Z,120768
2017-05-09T11:21:38.659Z,45728
2017-05-09T11:22:48.052Z,41696
2017-05-09T11:23:57.767Z,43968
2017-05-09T11:25:07.787Z,39712
2017-05-09T11:26:17.802Z,39776
2017-05-09T11:27:27.504Z,40416
2017-05-09T11:28:37.218Z,50208
2017-05-09T11:29:46.925Z,42816
2017-05-09T11:30:57.263Z,42496
2017-05-09T11:32:06.967Z,42016
2017-05-09T11:33:16.694Z,42336
2017-05-09T11:34:26.722Z,41312
2017-05-09T11:35:36.125Z,40800
2017-05-09T11:36:45.837Z,41248
2017-05-09T11:37:55.557Z,49184
2017-05-09T11:39:05.280Z,42496
2017-05-09T11:40:15.618Z,35104
2017-05-09T11:41:25.013Z,31392
2017-05-09T11:42:34.723Z,30816
2017-05-09T11:43:44.434Z,30240
2017-05-09T11:44:53.821Z,30912
2017-05-09T11:46:03.523Z,30528
2017-05-09T11:47:12.610Z,30688
2017-05-09T11:48:22.320Z,32992
2017-05-09T11:49:32.346Z,32160
2017-05-09T11:52:42.119Z,32480
2017-05-09T11:53:51.523Z,40256
2017-05-09T11:55:01.550Z,96864
2017-05-09T11:56:10.978Z,43808
2017-05-09T11:57:20.074Z,69728
2017-05-09T11:58:29.828Z,52032
2017-05-09T12:02:56.281Z,39360
2017-05-09T12:04:06.635Z,37440
2017-05-09T12:05:16.664Z,36704
2017-05-09T12:06:26.066Z,36352
2017-05-09T12:07:36.097Z,36096
2017-05-09T12:08:45.818Z,34848
2017-05-09T12:09:55.856Z,34432
2017-05-09T12:11:05.886Z,33600
2017-05-09T12:12:15.607Z,32288
2017-05-09T12:13:25.642Z,31744
2017-05-09T12:14:35.673Z,32384
2017-05-09T12:15:45.706Z,33472
2017-05-09T12:16:55.739Z,34496
2017-05-09T12:18:05.142Z,35072
2017-05-09T12:19:14.541Z,34784
2017-05-09T12:20:23.947Z,35520
2017-05-09T12:21:33.980Z,37600
2017-05-09T12:22:44.314Z,38176
2017-05-09T12:23:54.023Z,38784
2017-05-09T12:25:03.443Z,39456
2017-05-09T12:26:13.475Z,38592
2017-05-09T12:27:23.189Z,91744
2017-05-09T12:28:33.224Z,40480
2017-05-09T12:29:42.625Z,38944
2017-05-09T12:30:52.345Z,36480
2017-05-09T12:32:01.745Z,37920
2017-05-09T12:33:10.827Z,88544
2017-05-09T12:34:20.863Z,51104
2017-05-09T12:35:30.894Z,62848
2017-05-09T12:36:40.618Z,42432
2017-05-09T12:37:49.718Z,38528
2017-05-09T12:38:59.434Z,36384
2017-05-09T12:40:09.152Z,51840
2017-05-09T12:41:19.189Z,36672
2017-05-09T12:42:28.586Z,41248
2017-05-09T12:43:38.305Z,37184
2017-05-09T12:44:48.340Z,45728
2017-05-09T12:45:58.053Z,34240
2017-05-09T12:47:07.765Z,33472
2017-05-09T12:48:17.808Z,43520
2017-05-09T12:49:27.842Z,29696
2017-05-09T12:50:37.875Z,34400
2017-05-09T12:51:47.907Z,39552
2017-05-09T12:52:57.620Z,71008
2017-05-09T12:54:07.970Z,93216
2017-05-09T12:55:17.997Z,90912
2017-05-09T12:56:26.777Z,91584
2017-05-09T12:57:36.812Z,97152
2017-05-09T12:58:47.192Z,94944
2017-05-09T12:59:56.930Z,93248
2017-05-09T13:01:06.653Z,94048
2017-05-09T13:02:16.687Z,89216
2017-05-09T13:03:27.029Z,27104
2017-05-09T13:04:37.384Z,25952
2017-05-09T13:05:47.105Z,26240
2017-05-09T13:06:56.822Z,26944
2017-05-09T13:08:06.859Z,27904
2017-05-09T13:09:16.572Z,28480
2017-05-09T13:10:26.296Z,28672
2017-05-09T13:11:36.009Z,28640
2017-05-09T13:12:46.040Z,28704
2017-05-09T13:13:55.446Z,28928
2017-05-09T13:15:05.489Z,34688
2017-05-09T13:16:14.576Z,46016
2017-05-09T13:17:24.291Z,47296
2017-05-09T13:18:34.016Z,37344
2017-05-09T13:19:43.729Z,29344
2017-05-09T13:20:53.445Z,46496
2017-05-09T13:22:03.162Z,66208
2017-05-09T13:23:13.197Z,127616
2017-05-09T13:24:22.603Z,32864
2017-05-09T13:25:32.637Z,25248
2017-05-09T13:26:42.675Z,25376
2017-05-09T13:27:52.389Z,26880
2017-05-09T13:29:02.418Z,28480
2017-05-09T13:30:12.453Z,38656
2017-05-09T13:31:22.797Z,80896
2017-05-09T13:32:32.512Z,85120
2017-05-09T13:33:42.226Z,49408
2017-05-09T13:34:51.660Z,35904
2017-05-09T13:36:01.062Z,58976
2017-05-09T13:37:10.790Z,27904
2017-05-09T13:38:19.563Z,25632
2017-05-09T13:39:29.282Z,25760
2017-05-09T13:40:39.317Z,26144
2017-05-09T13:41:48.722Z,26688
2017-05-09T13:42:58.450Z,27488
2017-05-09T13:44:07.858Z,28192
2017-05-09T13:45:17.573Z,28704
2017-05-09T13:46:27.597Z,29728
2017-05-09T13:47:37.004Z,31616
2017-05-09T13:48:47.035Z,34304
2017-05-09T13:49:56.752Z,36288
2017-05-09T13:51:06.497Z,66816
2017-05-09T13:52:16.212Z,40064
2017-05-09T13:53:26.238Z,42208
2017-05-09T13:54:36.270Z,31648
2017-05-09T13:55:45.989Z,29216
2017-05-09T13:56:55.401Z,30112
2017-05-09T13:58:05.114Z,62912
2017-05-09T13:59:14.519Z,36704
2017-05-09T14:00:24.552Z,31392
2017-05-09T14:01:34.270Z,72800
2017-05-09T14:02:44.614Z,83584
2017-05-09T14:03:54.383Z,83648
2017-05-09T14:05:03.795Z,84768
2017-05-09T14:06:13.825Z,83424
2017-05-09T14:07:23.542Z,84256
2017-05-09T14:08:33.269Z,79392
2017-05-09T14:09:43.306Z,80544
2017-05-09T14:10:53.331Z,80864
2017-05-09T14:12:03.050Z,76768
2017-05-09T14:13:12.782Z,77472
2017-05-09T14:14:22.509Z,81536
2017-05-09T14:15:31.925Z,64128
2017-05-09T14:16:41.640Z,85408
2017-05-09T14:17:51.363Z,88800
2017-05-09T14:19:01.714Z,89664
2017-05-09T14:20:11.438Z,83136
2017-05-09T14:21:20.846Z,57760
2017-05-09T14:22:30.881Z,27840
2017-05-09T14:23:40.602Z,35168
2017-05-09T14:24:50.633Z,88704
2017-05-09T14:26:00.357Z,85632
2017-05-09T14:27:09.774Z,86496
2017-05-09T14:28:19.808Z,73664
2017-05-09T14:29:29.858Z,86208
2017-05-09T14:30:39.607Z,91904
2017-05-09T14:31:49.351Z,83424
2017-05-09T14:32:59.394Z,66336
2017-05-09T14:34:09.428Z,79872
2017-05-09T14:35:19.470Z,86528
2017-05-09T14:36:29.190Z,91712
2017-05-09T14:37:38.599Z,90400
2017-05-09T14:38:48.330Z,92480
2017-05-09T14:39:58.062Z,75360
2017-05-09T14:41:07.156Z,24672
2017-05-09T14:42:16.877Z,21536
2017-05-09T14:43:26.604Z,20896
2017-05-09T14:44:36.637Z,21120
2017-05-09T14:45:46.687Z,22432
2017-05-09T14:46:56.415Z,24928
2017-05-09T14:48:06.137Z,26624
2017-05-09T14:49:15.531Z,22944
2017-05-09T14:50:25.863Z,19296
2017-05-09T14:51:35.570Z,17104
2017-05-09T14:52:45.594Z,16200
2017-05-09T14:53:55.613Z,16608
2017-05-09T14:55:05.350Z,19872
2017-05-09T14:56:15.362Z,20512
2017-05-09T14:57:25.082Z,32224
2017-05-09T14:58:34.794Z,93120
2017-05-09T14:59:44.813Z,93152
2017-05-09T15:00:54.525Z,90432
2017-05-09T15:02:04.545Z,95136
2017-05-09T15:03:14.560Z,90272
2017-05-09T15:04:23.950Z,87008
2017-05-09T15:05:33.652Z,86528
2017-05-09T15:06:43.676Z,87296
2017-05-09T15:07:53.699Z,84544
2017-05-09T15:09:03.410Z,88128
2017-05-09T15:10:13.110Z,84032
2017-05-09T15:11:22.499Z,85952
2017-05-09T15:12:32.832Z,33472
2017-05-09T15:13:43.167Z,35584
2017-05-09T15:14:53.190Z,53440
2017-05-09T15:16:03.220Z,73120
2017-05-09T15:17:12.934Z,94080
2017-05-09T15:18:22.640Z,91456
2017-05-09T15:19:32.035Z,88832
2017-05-09T15:20:41.750Z,84896
2017-05-09T15:21:51.466Z,83104
2017-05-09T15:23:01.174Z,82976
2017-05-09T15:24:11.196Z,82048
2017-05-09T15:25:21.217Z,79776
2017-05-09T15:26:31.233Z,77440
2017-05-09T15:27:40.938Z,76352
2017-05-09T15:28:50.965Z,75776
2017-05-09T15:30:01.301Z,78816
2017-05-09T15:31:11.634Z,77792
2017-05-09T15:32:21.964Z,82368
2017-05-09T15:33:32.297Z,79872
2017-05-09T15:34:42.316Z,82464
2017-05-09T15:35:52.041Z,79104
2017-05-09T15:37:01.747Z,77088
2017-05-09T15:38:11.768Z,77664